Time;durP1;ratioP1;P1;durP2;ratioP2;P2;SDS_P1;SDS_P2;PMS_P1;PMS_P2;Temp;Humidity;BMP_temperature;BMP_pressure;BME280_temperature;BME280_humidity;BME280_pressure;Samples;Min_cycle;Max_cycle;Signal;HPM_P1;HPM_P2
2022/06/24 00:00:17;;;;;;;8.50;5.47;;;;;;;16.40;71.41;100803.84;1729086;82;25577;-80
2022/06/24 00:02:49;;;;;;;5.35;4.90;;;;;;;16.39;71.44;100803.52;1714059;82;25485;-82
2022/06/24 00:05:16;;;;;;;5.55;5.05;;;;;;;16.35;71.32;100800.44;1727176;82;25732;-81
2022/06/24 00:07:48;;;;;;;7.60;5.22;;;;;;;16.31;71.33;100798.39;1735816;80;27463;-79
2022/06/24 00:10:18;;;;;;;6.60;5.70;;;;;;;16.28;71.38;100801.00;1732201;82;25872;-82
2022/06/24 00:12:46;;;;;;;6.92;5.35;;;;;;;16.24;71.52;100806.55;1722756;82;25301;-82
2022/06/24 00:15:13;;;;;;;7.75;5.72;;;;;;;16.21;71.64;100805.10;1719041;82;26085;-82
2022/06/24 00:17:39;;;;;;;5.90;5.40;;;;;;;16.19;71.86;100802.31;1732850;80;25565;-81
2022/06/24 00:20:09;;;;;;;8.55;6.35;;;;;;;16.19;72.04;100803.14;1745387;82;28330;-80
2022/06/24 00:22:45;;;;;;;6.30;5.70;;;;;;;16.17;72.11;100801.70;1745173;82;25859;-80
2022/06/24 00:25:19;;;;;;;8.83;6.65;;;;;;;16.13;72.17;100808.08;1736644;82;26131;-81
2022/06/24 00:28:10;;;;;;;7.60;5.97;;;;;;;16.07;72.06;100802.71;1744997;80;25855;-80
2022/06/24 00:30:47;;;;;;;7.60;6.67;;;;;;;16.04;72.10;100805.31;1727925;82;25782;-80
2022/06/24 00:33:20;;;;;;;7.22;6.00;;;;;;;15.99;72.12;100804.33;1726418;82;27481;-81
2022/06/24 00:35:49;;;;;;;9.63;6.85;;;;;;;15.96;72.09;100810.98;1737145;82;25837;-81
2022/06/24 00:38:31;;;;;;;5.87;5.37;;;;;;;15.94;72.15;100809.02;1727405;80;25906;-80
2022/06/24 00:41:13;;;;;;;7.25;6.45;;;;;;;15.92;72.09;100808.92;1727251;82;26184;-82
2022/06/24 00:43:43;;;;;;;6.72;6.12;;;;;;;15.89;72.12;100812.05;1721690;82;25982;-81
2022/06/24 00:46:24;;;;;;;6.37;5.78;;;;;;;15.85;72.32;100810.83;1744669;82;27516;-82
2022/06/24 00:48:54;;;;;;;6.97;6.35;;;;;;;15.85;72.25;100806.26;1730920;82;25928;-79
2022/06/24 00:51:23;;;;;;;6.87;6.28;;;;;;;15.84;72.42;100815.94;1718877;82;25858;-80
2022/06/24 00:53:56;;;;;;;10.55;6.17;;;;;;;15.80;72.35;100818.77;1744700;82;26260;-80
2022/06/24 00:56:26;;;;;;;8.78;6.62;;;;;;;15.77;72.30;100811.08;1740895;81;25799;-80
2022/06/24 00:59:02;;;;;;;7.72;6.37;;;;;;;15.75;72.46;100811.82;1730090;82;28387;-79
2022/06/24 01:01:41;;;;;;;10.32;6.20;;;;;;;15.72;72.35;100816.29;1727873;82;26496;-80
2022/06/24 01:04:11;;;;;;;8.33;5.65;;;;;;;15.71;72.50;100816.00;1726074;82;26410;-79
2022/06/24 01:06:40;;;;;;;7.57;5.87;;;;;;;15.68;72.41;100809.15;1722263;82;26282;-80
2022/06/24 01:09:10;;;;;;;9.15;6.42;;;;;;;15.65;72.52;100810.11;1729012;80;25801;-80
2022/06/24 01:11:43;;;;;;;8.98;6.60;;;;;;;15.63;72.58;100808.95;1721460;82;27457;-80
2022/06/24 01:14:10;;;;;;;7.22;6.53;;;;;;;15.58;72.66;100812.00;1744878;82;25792;-80
2022/06/24 01:16:38;;;;;;;7.35;6.60;;;;;;;15.51;72.50;100805.79;1745219;82;26021;-79
2022/06/24 01:19:08;;;;;;;10.38;6.20;;;;;;;15.48;72.61;100806.23;1744580;80;26092;-82
2022/06/24 01:21:36;;;;;;;;;;;;;;;15.43;72.68;100800.95;1748074;82;25804;-82
2022/06/24 01:24:11;;;;;;;6.65;6.05;;;;;;;15.40;73.11;100799.16;1745825;82;27422;-82
2022/06/24 01:26:41;;;;;;;8.75;6.60;;;;;;;15.33;73.20;100799.17;1745325;82;25733;-81
2022/06/24 01:29:07;;;;;;;7.35;6.60;;;;;;;15.32;73.25;100801.58;1744997;80;26105;-81
2022/06/24 01:31:35;;;;;;;7.30;6.60;;;;;;;15.29;73.37;100804.69;1745213;82;26998;-82
2022/06/24 01:34:02;;;;;;;7.47;6.37;;;;;;;15.29;73.43;100800.64;1745633;82;25303;-81
2022/06/24 01:36:28;;;;;;;10.65;6.58;;;;;;;15.28;73.64;100802.22;1744833;81;28300;-80
2022/06/24 01:38:54;;;;;;;7.65;6.78;;;;;;;15.26;73.33;100799.73;1745312;80;25803;-80
2022/06/24 01:41:20;;;;;;;7.08;6.37;;;;;;;15.24;73.33;100799.13;1745158;82;26434;-81
2022/06/24 01:43:47;;;;;;;9.10;6.60;;;;;;;15.21;73.16;100799.53;1734982;82;26112;-81
2022/06/24 01:46:13;;;;;;;8.48;6.70;;;;;;;15.17;73.26;100805.56;1729855;82;25918;-81
2022/06/24 01:48:40;;;;;;;7.17;6.42;;;;;;;15.12;73.10;100799.98;1738099;82;27621;-81
2022/06/24 01:51:10;;;;;;;7.22;6.37;;;;;;;15.09;73.09;100805.80;1721795;82;25853;-81
2022/06/24 01:53:36;;;;;;;7.12;6.33;;;;;;;15.05;73.09;100808.09;1724022;82;26613;-81
2022/06/24 01:56:03;;;;;;;8.60;6.78;;;;;;;15.04;73.18;100807.77;1740677;82;26069;-82
2022/06/24 01:58:29;;;;;;;8.58;7.08;;;;;;;15.00;73.06;100810.59;1732774;80;26641;-82
2022/06/24 02:00:55;;;;;;;11.08;7.65;;;;;;;14.99;73.17;100798.66;1719380;82;27696;-81
2022/06/24 02:03:22;;;;;;;10.88;7.97;;;;;;;14.99;73.42;100808.11;1731633;82;25940;-81
2022/06/24 02:05:49;;;;;;;9.88;8.58;;;;;;;14.98;73.76;100805.92;1732310;82;25813;-82
2022/06/24 02:08:15;;;;;;;8.33;6.95;;;;;;;14.97;73.97;100808.30;1732156;82;26475;-82
2022/06/24 02:13:27;;;;;;;8.48;7.58;;;;;;;14.93;74.06;100807.06;1736714;82;27511;-81
2022/06/24 02:16:03;;;;;;;8.70;7.80;;;;;;;14.90;73.91;100806.66;1738916;82;25859;-80
2022/06/24 02:18:31;;;;;;;9.90;8.08;;;;;;;14.86;73.89;100806.27;1714908;82;25851;-82
2022/06/24 02:20:59;;;;;;;8.80;7.10;;;;;;;14.83;73.95;100805.83;1725875;80;26066;-82
2022/06/24 02:23:27;;;;;;;11.95;7.40;;;;;;;14.80;74.03;100811.12;1753062;80;26278;-82
2022/06/24 02:25:54;;;;;;;8.18;7.37;;;;;;;14.77;74.09;100803.97;1756010;80;27521;-83
2022/06/24 02:28:21;;;;;;;12.28;7.33;;;;;;;14.76;74.42;100804.48;1761278;80;26773;-81
2022/06/24 02:30:50;;;;;;;10.63;7.72;;;;;;;14.74;74.45;100812.47;1740098;81;25707;-80
2022/06/24 02:33:16;;;;;;;8.83;7.90;;;;;;;14.71;74.66;100808.86;1753461;80;26063;-81
2022/06/24 02:35:43;;;;;;;9.03;8.13;;;;;;;14.68;74.73;100808.75;1752795;80;25759;-82
2022/06/24 02:38:09;;;;;;;12.37;7.95;;;;;;;14.67;74.72;100811.13;1772199;79;28568;-81
2022/06/24 02:40:48;;;;;;;11.25;7.42;;;;;;;14.67;74.82;100811.96;1777754;79;26600;-81
2022/06/24 02:43:30;;;;;;;11.30;7.28;;;;;;;14.66;74.59;100811.66;1743082;81;25366;-80
2022/06/24 02:46:06;;;;;;;9.98;7.58;;;;;;;14.64;74.67;100811.05;1743007;80;26083;-80
2022/06/24 02:48:34;;;;;;;8.83;7.37;;;;;;;14.63;74.65;100812.58;1745290;80;25930;-81
2022/06/24 02:51:05;;;;;;;9.20;7.37;;;;;;;14.63;74.85;100813.92;1752717;80;27447;-80
2022/06/24 02:53:33;;;;;;;10.48;8.03;;;;;;;14.63;74.86;100815.27;1752754;80;25808;-80
2022/06/24 02:56:06;;;;;;;8.83;7.67;;;;;;;14.63;75.13;100824.71;1777401;79;25858;-80
2022/06/24 02:58:34;;;;;;;9.28;7.62;;;;;;;14.62;75.39;100826.60;1772272;79;26972;-80
2022/06/24 03:01:02;;;;;;;10.90;8.05;;;;;;;14.63;75.79;100825.55;1772647;79;25967;-80
2022/06/24 03:03:29;;;;;;;9.35;7.85;;;;;;;14.63;75.95;100820.16;1771853;79;28273;-79
2022/06/24 03:05:56;;;;;;;9.80;8.80;;;;;;;14.65;76.17;100823.47;1768256;79;25806;-80
2022/06/24 03:08:25;;;;;;;9.73;8.10;;;;;;;14.68;76.34;100827.63;1766745;79;25428;-81
2022/06/24 03:10:51;;;;;;;13.83;7.92;;;;;;;14.70;76.44;100825.55;1756087;80;26107;-79
2022/06/24 03:13:18;;;;;;;9.10;7.97;;;;;;;14.71;76.35;100823.69;1744410;80;26071;-80
2022/06/24 03:15:45;;;;;;;9.28;7.60;;;;;;;14.73;76.34;100825.14;1758468;80;27426;-82
2022/06/24 03:18:14;;;;;;;9.45;8.15;;;;;;;14.76;76.11;100831.45;1759202;80;26110;-82
2022/06/24 03:20:41;;;;;;;11.90;8.35;;;;;;;14.83;76.18;100830.10;1757974;79;25879;-81
2022/06/24 03:23:07;;;;;;;9.28;8.13;;;;;;;14.85;76.35;100831.56;1746713;80;26080;-81
2022/06/24 03:25:34;;;;;;;10.53;8.30;;;;;;;14.89;76.71;100831.45;1765959;80;25773;-81
2022/06/24 03:28:04;;;;;;;11.70;7.90;;;;;;;14.94;76.72;100827.61;1731302;81;27438;-80
2022/06/24 03:30:32;;;;;;;11.90;8.65;;;;;;;15.01;77.08;100830.30;1741100;80;26101;-81
2022/06/24 03:33:00;;;;;;;11.48;8.25;;;;;;;15.11;77.32;100838.79;1766856;80;25812;-82
2022/06/24 03:35:27;;;;;;;9.93;8.50;;;;;;;15.19;77.33;100837.20;1753934;80;26070;-82
2022/06/24 03:37:53;;;;;;;9.83;8.45;;;;;;;15.28;77.42;100837.30;1753755;80;25699;-82
2022/06/24 03:40:20;;;;;;;11.75;8.80;;;;;;;15.33;77.45;100833.45;1771301;80;28759;-82
2022/06/24 03:42:47;;;;;;;11.68;8.65;;;;;;;15.39;77.40;100833.95;1761280;79;25806;-82
2022/06/24 03:45:13;;;;;;;9.75;8.75;;;;;;;15.43;77.46;100830.66;1746653;81;25591;-81
2022/06/24 03:47:39;;;;;;;12.05;8.43;;;;;;;15.47;77.64;100835.09;1779754;78;26107;-80
2022/06/24 03:50:07;;;;;;;12.40;8.40;;;;;;;15.49;77.71;100826.26;1772707;79;25875;-82
2022/06/24 03:52:33;;;;;;;13.70;8.85;;;;;;;15.53;77.69;100830.19;1766938;80;27511;-80
2022/06/24 03:54:59;;;;;;;10.55;7.50;;;;;;;15.56;77.91;100832.48;1762125;79;26485;-82
2022/06/24 03:57:28;;;;;;;9.90;8.23;;;;;;;15.59;77.89;100829.33;1776961;78;25678;-81
2022/06/24 03:59:54;;;;;;;10.95;7.65;;;;;;;15.64;78.11;100831.39;1723722;82;26864;-79
2022/06/24 04:02:21;;;;;;;10.88;8.43;;;;;;;15.69;78.14;100835.64;1767219;80;26511;-80
2022/06/24 04:04:47;;;;;;;11.93;8.23;;;;;;;15.72;78.16;100836.55;1746500;80;27469;-79
2022/06/24 04:07:14;;;;;;;11.38;7.78;;;;;;;15.79;78.48;100837.36;1744124;80;26535;-81
2022/06/24 04:09:40;;;;;;;11.05;7.95;;;;;;;15.86;78.54;100832.25;1757454;80;26547;-80
2022/06/24 04:12:07;;;;;;;11.68;8.13;;;;;;;15.92;78.66;100835.43;1743366;80;26684;-82
2022/06/24 04:17:18;;;;;;;9.90;7.60;;;;;;;16.19;78.94;100834.74;1757666;80;27637;-81
2022/06/24 04:19:44;;;;;;;8.35;7.35;;;;;;;16.31;79.15;100841.13;1758162;80;25771;-80
2022/06/24 04:22:10;;;;;;;10.40;7.92;;;;;;;16.40;79.16;100838.44;1747478;80;25804;-81
2022/06/24 04:24:36;;;;;;;8.68;7.70;;;;;;;16.50;79.45;100838.00;1758823;80;26877;-81
2022/06/24 04:27:03;;;;;;;11.48;7.33;;;;;;;16.58;79.37;100839.91;1743742;80;26121;-81
2022/06/24 04:29:30;;;;;;;10.80;7.70;;;;;;;16.67;79.17;100838.61;1756714;79;28261;-82
2022/06/24 04:31:56;;;;;;;9.90;7.92;;;;;;;16.76;79.33;100843.21;1723466;80;25804;-82
2022/06/24 04:34:22;;;;;;;10.18;7.78;;;;;;;16.82;79.22;100839.62;1758831;80;25794;-81
2022/06/24 04:36:48;;;;;;;11.95;7.33;;;;;;;16.91;79.34;100846.41;1729156;81;26213;-82
2022/06/24 04:39:15;;;;;;;9.35;6.95;;;;;;;17.03;79.21;100841.08;1738393;80;25846;-82
2022/06/24 04:41:41;;;;;;;9.58;6.53;;;;;;;17.16;79.17;100848.56;1773895;79;28300;-81
2022/06/24 04:44:07;;;;;;;8.60;6.97;;;;;;;17.28;79.07;100843.25;1768041;79;25767;-80
2022/06/24 04:46:33;;;;;;;13.88;8.35;;;;;;;17.40;79.01;100844.98;1776203;79;26034;-81
2022/06/24 04:49:00;;;;;;;8.33;6.60;;;;;;;17.49;78.68;100834.67;1771836;79;26064;-81
2022/06/24 04:51:28;;;;;;;9.80;6.75;;;;;;;17.62;78.44;100833.20;1753016;80;25957;-81
2022/06/24 04:53:56;;;;;;;9.07;6.47;;;;;;;17.75;78.42;100844.41;1768519;80;27187;-81
2022/06/24 04:56:22;;;;;;;9.45;6.37;;;;;;;17.89;78.32;100840.45;1776385;79;25290;-81
2022/06/24 04:58:49;;;;;;;12.70;7.95;;;;;;;18.03;77.64;100841.92;1772327;79;25888;-81
2022/06/24 05:01:15;;;;;;;13.35;7.58;;;;;;;18.16;77.19;100838.51;1770796;79;26064;-80
2022/06/24 05:03:43;;;;;;;10.60;6.87;;;;;;;18.29;76.65;100841.03;1772725;80;25740;-80
2022/06/24 05:06:09;;;;;;;10.93;7.15;;;;;;;18.40;76.03;100848.38;1772633;80;27500;-80
2022/06/24 05:08:35;;;;;;;12.50;6.60;;;;;;;18.52;75.67;100840.28;1773718;79;25778;-82
2022/06/24 05:11:01;;;;;;;11.22;6.47;;;;;;;18.64;75.30;100844.39;1772746;79;25812;-80
2022/06/24 05:13:28;;;;;;;9.10;7.35;;;;;;;18.76;74.91;100839.80;1772331;80;26859;-84
2022/06/24 05:15:55;;;;;;;9.30;6.28;;;;;;;18.85;74.67;100839.76;1777207;79;25859;-80
2022/06/24 05:18:21;;;;;;;11.70;6.17;;;;;;;18.94;74.36;100835.12;1757985;79;27637;-82
2022/06/24 05:20:47;;;;;;;8.05;6.17;;;;;;;19.05;74.16;100838.89;1751356;80;25868;-81
2022/06/24 05:23:14;;;;;;;9.35;5.97;;;;;;;19.13;74.01;100841.25;1754217;80;25817;-80
2022/06/24 05:25:40;;;;;;;11.63;6.05;;;;;;;19.21;73.73;100840.36;1749547;80;26491;-81
2022/06/24 05:28:06;;;;;;;9.35;5.83;;;;;;;19.32;73.30;100841.41;1757552;80;25914;-81
2022/06/24 05:30:33;;;;;;;9.05;5.70;;;;;;;19.41;73.43;100840.55;1751085;80;27635;-81
2022/06/24 05:32:59;;;;;;;8.78;6.00;;;;;;;19.51;73.61;100840.75;1752558;80;25951;-81
2022/06/24 05:35:25;;;;;;;9.15;6.03;;;;;;;19.61;73.20;100842.34;1740889;80;25796;-81
2022/06/24 05:37:51;;;;;;;13.45;5.47;;;;;;;19.68;72.44;100837.58;1753394;80;26058;-81
2022/06/24 05:40:18;;;;;;;7.70;5.67;;;;;;;19.77;72.28;100847.02;1740428;80;25788;-80
2022/06/24 05:42:44;;;;;;;9.53;5.72;;;;;;;19.87;72.25;100839.06;1752774;80;27434;-82
2022/06/24 05:45:11;;;;;;;7.97;4.90;;;;;;;19.97;72.00;100840.09;1743304;80;25322;-80
2022/06/24 05:47:38;;;;;;;7.22;5.28;;;;;;;20.08;72.36;100838.39;1758786;79;25779;-81
2022/06/24 05:50:05;;;;;;;8.60;5.42;;;;;;;20.21;71.95;100838.69;1758088;80;26130;-81
2022/06/24 05:55:16;;;;;;;7.35;4.72;;;;;;;20.37;71.53;100833.27;1742078;80;27518;-81
2022/06/24 05:57:42;;;;;;;8.10;5.17;;;;;;;20.49;71.22;100837.27;1755603;80;25829;-80
2022/06/24 06:00:10;;;;;;;10.45;4.50;;;;;;;20.61;71.29;100834.79;1756183;80;25787;-81
2022/06/24 06:02:36;;;;;;;6.03;4.30;;;;;;;20.72;70.86;100835.22;1751173;80;26030;-81
2022/06/24 06:05:03;;;;;;;10.05;4.72;;;;;;;20.87;70.82;100833.27;1767672;80;25319;-80
2022/06/24 06:07:29;;;;;;;7.50;4.50;;;;;;;20.96;69.40;100835.88;1741292;80;27614;-81
2022/06/24 06:09:56;;;;;;;6.58;4.08;;;;;;;21.07;68.99;100833.63;1752824;80;26096;-81
2022/06/24 06:12:23;;;;;;;6.47;4.03;;;;;;;21.19;68.94;100838.43;1759074;80;25323;-80
2022/06/24 06:14:49;;;;;;;12.13;4.22;;;;;;;21.33;69.30;100832.92;1761435;80;26077;-82
2022/06/24 06:17:15;;;;;;;10.18;4.78;;;;;;;21.48;68.58;100829.58;1753992;80;26431;-81
2022/06/24 06:19:41;;;;;;;6.53;4.28;;;;;;;21.63;69.15;100828.95;1753689;80;27435;-81
2022/06/24 06:22:08;;;;;;;7.15;4.33;;;;;;;21.75;69.56;100833.19;1767655;80;25816;-81
2022/06/24 06:24:34;;;;;;;4.83;3.87;;;;;;;21.87;68.39;100833.93;1772350;80;26080;-82
2022/06/24 06:27:00;;;;;;;8.43;4.70;;;;;;;21.95;67.73;100836.20;1759339;80;26075;-81
2022/06/24 06:29:27;;;;;;;10.28;4.45;;;;;;;22.02;67.48;100837.37;1746363;80;25806;-81
2022/06/24 06:31:53;;;;;;;11.93;3.90;;;;;;;22.12;67.88;100836.94;1746951;80;27520;-81
2022/06/24 06:34:20;;;;;;;4.30;3.80;;;;;;;22.23;67.68;100840.59;1744958;80;25787;-82
2022/06/24 06:36:46;;;;;;;9.53;3.87;;;;;;;22.34;67.27;100831.43;1761497;80;25873;-80
2022/06/24 06:39:13;;;;;;;16.20;4.37;;;;;;;22.44;66.64;100832.05;1768637;79;26975;-81
2022/06/24 06:41:41;;;;;;;6.12;3.90;;;;;;;22.56;66.48;100841.72;1763564;80;25826;-82
2022/06/24 06:44:07;;;;;;;5.12;3.33;;;;;;;22.65;65.30;100836.11;1757010;80;28035;-82
2022/06/24 06:46:34;;;;;;;12.53;4.00;;;;;;;22.72;64.62;100839.45;1764363;80;25907;-81
2022/06/24 06:49:01;;;;;;;5.50;3.65;;;;;;;22.80;63.60;100841.70;1754017;79;26496;-80
2022/06/24 06:51:27;;;;;;;6.90;3.60;;;;;;;22.84;62.97;100839.25;1753641;80;26238;-81
2022/06/24 06:53:53;;;;;;;11.03;3.98;;;;;;;22.91;63.41;100833.03;1753434;80;25935;-81
2022/06/24 06:56:20;;;;;;;4.35;3.55;;;;;;;22.98;63.58;100837.20;1758394;80;28323;-81
2022/06/24 06:58:46;;;;;;;5.45;3.55;;;;;;;23.08;61.84;100827.41;1760983;79;25815;-82
2022/06/24 07:01:12;;;;;;;5.87;3.55;;;;;;;23.13;61.83;100831.02;1767769;80;25733;-82
2022/06/24 07:03:38;;;;;;;4.95;3.50;;;;;;;23.20;61.04;100829.41;1770802;80;26060;-81
2022/06/24 07:06:05;;;;;;;5.05;3.30;;;;;;;23.27;61.07;100821.78;1758953;80;25904;-79
2022/06/24 07:08:31;;;;;;;5.05;3.22;;;;;;;23.34;61.12;100823.24;1771358;79;27612;-81
2022/06/24 07:10:58;;;;;;;4.47;3.60;;;;;;;23.41;60.65;100827.11;1757223;80;26369;-81
2022/06/24 07:13:24;;;;;;;7.05;3.00;;;;;;;23.45;60.21;100822.21;1766168;80;25769;-80
2022/06/24 07:15:51;;;;;;;6.00;3.70;;;;;;;23.50;59.56;100824.16;1766952;80;26483;-81
2022/06/24 07:18:17;;;;;;;5.40;3.47;;;;;;;23.56;59.72;100823.91;1766545;79;25708;-80
2022/06/24 07:20:44;;;;;;;4.30;2.70;;;;;;;23.63;60.04;100819.00;1753531;80;27617;-81
2022/06/24 07:23:10;;;;;;;5.22;3.50;;;;;;;23.70;59.48;100812.75;1742493;80;25823;-81
2022/06/24 07:25:36;;;;;;;5.10;3.20;;;;;;;23.78;58.99;100814.70;1750751;80;25868;-79
2022/06/24 07:28:04;;;;;;;7.00;4.95;;;;;;;23.85;58.56;100816.08;1740101;80;26066;-81
2022/06/24 07:30:31;;;;;;;7.95;4.37;;;;;;;23.94;59.12;100810.36;1747647;80;25964;-79
2022/06/24 07:32:57;;;;;;;8.45;3.83;;;;;;;24.00;57.42;100806.55;1758335;80;28323;-80
2022/06/24 07:35:25;;;;;;;5.67;3.50;;;;;;;24.09;58.44;100812.34;1757573;80;25594;-80
2022/06/24 07:37:51;;;;;;;5.33;3.17;;;;;;;24.16;57.22;100812.91;1763896;79;26043;-82
2022/06/24 07:40:18;;;;;;;6.50;3.75;;;;;;;24.23;57.39;100808.01;1745129;80;26515;-81
2022/06/24 07:42:44;;;;;;;8.10;4.30;;;;;;;24.29;56.19;100807.72;1759419;80;25921;-80
2022/06/24 07:45:12;;;;;;;5.10;4.33;;;;;;;24.33;56.19;100809.38;1756998;80;27440;-81
2022/06/24 07:47:38;;;;;;;7.03;4.92;;;;;;;24.38;53.96;100799.78;1771471;79;25943;-80
2022/06/24 07:50:06;;;;;;;5.78;4.70;;;;;;;24.44;53.79;100801.45;1759057;80;25905;-80
2022/06/24 07:52:32;;;;;;;7.00;4.55;;;;;;;24.50;55.28;100801.19;1764024;80;26066;-79
2022/06/24 07:57:43;;;;;;;7.40;4.10;;;;;;;24.67;54.24;100788.58;1757171;79;27429;-80
2022/06/24 08:00:10;;;;;;;7.90;3.72;;;;;;;24.73;55.17;100794.32;1756203;80;26446;-80
2022/06/24 08:02:39;;;;;;;9.85;4.15;;;;;;;24.78;53.57;100794.36;1762913;80;25842;-82
2022/06/24 08:05:07;;;;;;;7.08;3.83;;;;;;;24.82;55.10;100791.34;1759735;80;27032;-78
2022/06/24 08:07:33;;;;;;;4.03;3.62;;;;;;;24.89;54.41;100789.12;1757911;79;25953;-79
2022/06/24 08:09:59;;;;;;;4.22;3.50;;;;;;;24.97;53.71;100783.64;1744866;80;27507;-79
2022/06/24 08:12:25;;;;;;;6.80;4.15;;;;;;;25.07;53.75;100787.72;1763741;80;25997;-79
2022/06/24 08:14:52;;;;;;;3.30;2.77;;;;;;;25.13;52.60;100786.61;1752860;80;26255;-79
2022/06/24 08:17:19;;;;;;;4.42;1.82;;;;;;;25.19;51.99;100784.14;1770385;80;26423;-78
2022/06/24 08:19:45;;;;;;;6.78;2.35;;;;;;;25.26;49.94;100780.54;1761776;80;25934;-78
2022/06/24 08:22:11;;;;;;;3.33;2.12;;;;;;;25.31;49.99;100773.67;1756103;80;27420;-78
2022/06/24 08:24:37;;;;;;;2.72;2.30;;;;;;;25.37;49.80;100781.33;1764167;80;25258;-77
2022/06/24 08:27:04;;;;;;;3.83;1.90;;;;;;;25.40;49.01;100780.23;1752489;80;25872;-78
2022/06/24 08:29:30;;;;;;;5.53;2.20;;;;;;;25.46;48.96;100778.31;1753686;80;26062;-78
2022/06/24 08:31:57;;;;;;;3.12;2.17;;;;;;;25.50;46.56;100779.39;1751551;80;25952;-79
2022/06/24 08:34:23;;;;;;;4.95;2.00;;;;;;;25.52;47.35;100778.02;1740372;80;27438;-78
2022/06/24 08:36:49;;;;;;;3.05;1.95;;;;;;;25.58;48.85;100766.45;1749313;80;25807;-79
2022/06/24 08:39:16;;;;;;;4.47;2.05;;;;;;;25.68;48.25;100769.17;1754891;80;25858;-79
2022/06/24 08:41:47;;;;;;;6.22;2.50;;;;;;;25.73;47.48;100763.63;1763175;80;26864;-79
2022/06/24 08:44:13;;;;;;;3.92;2.22;;;;;;;25.76;45.99;100760.34;1745376;80;25926;-79
2022/06/24 08:46:40;;;;;;;3.22;2.02;;;;;;;25.80;45.12;100760.04;1761278;80;28271;-79
2022/06/24 08:49:07;;;;;;;3.77;2.20;;;;;;;25.83;45.89;100760.28;1770122;79;25901;-78
2022/06/24 08:51:36;;;;;;;3.70;1.90;;;;;;;25.87;44.43;100755.06;1759606;80;25817;-79
2022/06/24 08:54:03;;;;;;;4.72;2.17;;;;;;;25.91;45.35;100757.50;1769652;80;26335;-79
2022/06/24 08:56:30;;;;;;;1.85;1.70;;;;;;;25.95;45.05;100759.95;1752217;80;26071;-78
2022/06/24 08:58:58;;;;;;;6.67;2.33;;;;;;;25.99;43.74;100763.22;1764870;79;28262;-79
2022/06/24 09:01:25;;;;;;;4.00;1.80;;;;;;;26.01;43.81;100759.63;1740750;80;25842;-79
2022/06/24 09:03:51;;;;;;;6.30;2.12;;;;;;;26.05;43.40;100748.09;1751595;80;25732;-80
2022/06/24 09:06:18;;;;;;;1.95;1.75;;;;;;;26.11;43.13;100760.71;1754640;80;26862;-82
2022/06/24 09:08:53;;;;;;;2.85;2.10;;;;;;;26.15;44.56;100750.25;1753172;79;25779;-80
2022/06/24 09:11:20;;;;;;;2.27;1.60;;;;;;;26.24;43.36;100753.20;1735560;80;28311;-80
2022/06/24 09:13:55;;;;;;;3.17;1.98;;;;;;;26.29;43.80;100742.16;1771367;80;26403;-81
2022/06/24 09:16:24;;;;;;;3.55;1.80;;;;;;;26.35;43.15;100745.13;1766819;80;25800;-81
2022/06/24 09:18:57;;;;;;;4.55;2.12;;;;;;;26.39;44.89;100741.52;1763253;79;26418;-81
2022/06/24 09:21:30;;;;;;;3.42;2.15;;;;;;;26.44;42.61;100741.48;1746374;80;26115;-78
2022/06/24 09:23:59;;;;;;;1.80;1.70;;;;;;;26.50;42.72;100740.88;1756590;80;28284;-81
2022/06/24 09:26:39;;;;;;;1.82;1.72;;;;;;;26.54;43.59;100730.95;1759590;80;25480;-79
2022/06/24 09:29:09;;;;;;;2.45;2.20;;;;;;;26.60;43.98;100738.06;1761201;80;25935;-79
2022/06/24 09:31:38;;;;;;;2.90;1.80;;;;;;;26.67;43.55;100731.09;1760349;80;26533;-78
2022/06/24 09:34:13;;;;;;;2.50;1.70;;;;;;;26.74;42.82;100726.67;1770736;80;26008;-81
2022/06/24 09:36:43;;;;;;;4.67;1.80;;;;;;;26.79;43.79;100725.80;1770918;80;27465;-79
2022/06/24 09:39:13;;;;;;;2.47;1.70;;;;;;;26.80;43.18;100725.50;1765384;79;25890;-78
2022/06/24 09:41:53;;;;;;;1.90;1.70;;;;;;;26.82;42.86;100729.36;1773940;80;25818;-78
2022/06/24 09:44:21;;;;;;;3.67;1.65;;;;;;;26.84;42.53;100722.44;1758622;80;26066;-79
2022/06/24 09:47:04;;;;;;;3.37;1.70;;;;;;;26.89;43.09;100726.52;1749069;80;25994;-78
2022/06/24 09:49:31;;;;;;;2.52;1.77;;;;;;;26.92;43.16;100723.74;1742694;80;27423;-78
2022/06/24 09:51:58;;;;;;;2.58;1.80;;;;;;;26.97;40.24;100723.67;1765915;80;25835;-82
2022/06/24 09:54:25;;;;;;;3.25;1.70;;;;;;;26.99;42.04;100721.48;1753760;80;25757;-79
2022/06/24 09:56:52;;;;;;;3.08;2.08;;;;;;;27.02;40.64;100716.75;1740276;80;26235;-78
2022/06/24 10:02:05;;;;;;;1.75;1.62;;;;;;;27.09;41.29;100713.92;1746740;80;27459;-78
2022/06/24 10:04:33;;;;;;;3.40;1.72;;;;;;;27.10;41.43;100719.67;1758384;80;25835;-77
2022/06/24 10:07:03;;;;;;;1.70;1.50;;;;;;;27.12;42.41;100716.08;1771106;80;25804;-78
2022/06/24 10:09:32;;;;;;;2.08;1.77;;;;;;;27.16;42.84;100710.83;1725955;81;27783;-77
2022/06/24 10:12:00;;;;;;;6.30;2.00;;;;;;;27.21;42.32;100717.07;1771266;80;26462;-78
2022/06/24 10:14:29;;;;;;;5.47;1.52;;;;;;;27.25;41.15;100712.61;1734615;81;27431;-76
2022/06/24 10:16:58;;;;;;;2.58;1.70;;;;;;;27.30;41.42;100709.81;1767404;80;25951;-77
2022/06/24 10:19:26;;;;;;;2.40;1.82;;;;;;;27.37;42.03;100706.73;1755647;80;26488;-78
2022/06/24 10:21:53;;;;;;;1.90;1.75;;;;;;;27.41;40.48;100709.16;1752028;80;26100;-77
2022/06/24 10:24:20;;;;;;;2.50;2.00;;;;;;;27.44;40.76;100701.66;1741023;80;25298;-76
2022/06/24 10:26:55;;;;;;;4.17;1.72;;;;;;;27.48;41.22;100702.16;1752799;80;27465;-76
2022/06/24 10:29:31;;;;;;;2.95;2.00;;;;;;;27.52;39.71;100692.77;1747147;80;25846;-78
2022/06/24 10:32:03;;;;;;;4.60;1.87;;;;;;;27.57;40.48;100690.48;1765695;80;25865;-78
2022/06/24 10:34:34;;;;;;;2.30;2.10;;;;;;;27.53;40.24;100688.89;1759500;80;26528;-79
2022/06/24 10:37:16;;;;;;;4.35;1.85;;;;;;;27.57;40.66;100690.48;1756778;80;25311;-78
2022/06/24 10:39:54;;;;;;;3.50;1.62;;;;;;;27.60;39.52;100689.34;1762669;80;27437;-77
2022/06/24 10:42:23;;;;;;;1.47;1.37;;;;;;;27.62;38.56;100677.48;1770047;79;25751;-81
2022/06/24 10:45:02;;;;;;;2.75;2.50;;;;;;;27.62;38.67;100678.86;1751083;81;25989;-78
2022/06/24 10:47:38;;;;;;;4.33;1.67;;;;;;;27.65;39.86;100674.12;1783033;79;26088;-77
2022/06/24 10:50:13;;;;;;;5.90;1.62;;;;;;;27.70;39.76;100671.85;1759677;80;25838;-81
2022/06/24 10:55:35;;;;;;;5.62;2.08;;;;;;;27.87;41.00;100665.26;1667637;81;25847;-78
2022/06/24 10:58:10;;;;;;;2.65;2.00;;;;;;;27.94;40.67;100665.16;1675250;84;25766;-78
2022/06/24 11:00:48;;;;;;;2.55;2.00;;;;;;;28.01;40.72;100662.05;1692637;83;26081;-78
2022/06/24 11:03:16;;;;;;;2.80;2.00;;;;;;;28.05;40.20;100663.08;1687961;84;25992;-79
2022/06/24 11:05:45;;;;;;;2.05;1.70;;;;;;;28.03;39.05;100651.55;1666698;85;27532;-78
2022/06/24 11:08:16;;;;;;;2.50;1.40;;;;;;;27.99;39.16;100654.65;1661299;85;25809;-77
2022/06/24 11:10:43;;;;;;;3.77;1.60;;;;;;;28.03;38.98;100655.68;1667401;85;25742;-77
2022/06/24 11:13:10;;;;;;;1.35;1.20;;;;;;;28.05;37.93;100643.80;1675272;85;26045;-77
2022/06/24 11:15:47;;;;;;;3.90;1.85;;;;;;;28.07;39.42;100655.34;1666100;84;26453;-79
2022/06/24 11:18:20;;;;;;;1.60;1.50;;;;;;;28.14;38.60;100659.91;1659643;85;28326;-76
2022/06/24 11:20:54;;;;;;;5.28;1.55;;;;;;;28.19;39.55;100648.78;1655788;85;26475;-78
2022/06/24 11:23:24;;;;;;;1.50;1.32;;;;;;;28.23;39.26;100650.63;1671113;85;26007;-77
2022/06/24 11:26:03;;;;;;;2.03;1.33;;;;;;;28.30;39.34;100651.62;1647433;85;26078;-77
2022/06/24 11:28:37;;;;;;;1.87;1.65;;;;;;;28.32;38.16;100641.11;1664567;83;25856;-76
2022/06/24 11:31:28;;;;;;;5.12;1.35;;;;;;;28.35;39.10;100644.66;1675776;83;27646;-77
2022/06/24 11:34:07;;;;;;;4.00;1.60;;;;;;;28.42;39.43;100635.41;1654368;85;26256;-77
2022/06/24 11:36:37;;;;;;;3.58;1.27;;;;;;;28.45;39.06;100632.05;1638968;87;26679;-76
2022/06/24 11:39:09;;;;;;;1.60;1.50;;;;;;;28.49;38.82;100630.33;1630228;85;26103;-76
2022/06/24 11:41:38;;;;;;;1.32;1.22;;;;;;;28.53;38.22;100620.32;1630486;86;25964;-77
2022/06/24 11:44:04;;;;;;;1.20;1.10;;;;;;;28.59;37.97;100622.47;1658355;83;27470;-78
2022/06/24 11:46:32;;;;;;;4.42;1.40;;;;;;;28.68;38.11;100627.50;1674026;83;25833;-78